createdAt,value
2018-01-02T00:00:10.434Z,3.17
2018-01-02T00:02:39.022Z,2.83
2018-01-02T00:05:08.458Z,2.35
2018-01-02T00:07:37.100Z,3.47
2018-01-02T00:10:07.042Z,4.10
2018-01-02T00:12:35.490Z,3.07
2018-01-02T00:15:07.051Z,2.90
2018-01-02T00:17:35.275Z,3.80
2018-01-02T00:20:07.214Z,3.20
2018-01-02T00:22:36.003Z,3.33
2018-01-02T00:25:08.474Z,3.90
2018-01-02T00:27:37.394Z,6.28
2018-01-02T00:30:07.552Z,3.27
2018-01-02T00:32:35.977Z,5.23
2018-01-02T00:35:07.165Z,4.03
2018-01-02T00:37:35.460Z,5.20
2018-01-02T00:40:06.772Z,2.92
2018-01-02T00:42:35.063Z,5.60
2018-01-02T00:45:06.420Z,3.75
2018-01-02T00:47:34.798Z,4.97
2018-01-02T00:50:08.853Z,3.73
2018-01-02T00:52:37.174Z,5.90
2018-01-02T00:55:06.913Z,6.33
2018-01-02T00:57:35.208Z,5.73
2018-01-02T01:00:06.455Z,6.53
2018-01-02T01:02:34.806Z,6.80
2018-01-02T01:05:06.763Z,8.33
2018-01-02T01:07:35.787Z,7.60
2018-01-02T01:10:11.950Z,6.33
2018-01-02T01:12:41.088Z,7.27
2018-01-02T01:15:09.546Z,6.57
2018-01-02T01:17:38.835Z,6.40
2018-01-02T01:20:07.871Z,6.63
2018-01-02T01:22:36.414Z,6.93
2018-01-02T01:25:07.849Z,5.87
2018-01-02T01:27:36.412Z,6.57
2018-01-02T01:30:06.463Z,4.90
2018-01-02T01:32:34.939Z,6.77
2018-01-02T01:35:06.836Z,8.40
2018-01-02T01:37:35.779Z,6.90
2018-01-02T01:40:07.623Z,9.10
2018-01-02T01:42:36.625Z,6.00
2018-01-02T01:45:06.768Z,6.10
2018-01-02T01:47:35.062Z,5.90
2018-01-02T01:50:07.036Z,7.53
2018-01-02T01:52:36.049Z,6.90
2018-01-02T01:55:07.793Z,8.37
2018-01-02T01:57:36.585Z,6.33
2018-01-02T02:00:06.727Z,7.30
2018-01-02T02:02:35.155Z,6.07
2018-01-02T02:05:07.102Z,4.80
2018-01-02T02:07:35.749Z,8.57
2018-01-02T02:10:08.332Z,6.23
2018-01-02T02:12:36.736Z,5.47
2018-01-02T02:15:06.768Z,6.93
2018-01-02T02:17:35.845Z,7.33
2018-01-02T02:20:07.566Z,6.50
2018-01-02T02:22:36.772Z,7.57
2018-01-02T02:25:09.305Z,8.63
2018-01-02T02:27:37.990Z,9.73
2018-01-02T02:30:07.108Z,8.50
2018-01-02T02:32:36.285Z,5.30
2018-01-02T02:35:08.251Z,6.67
2018-01-02T02:37:36.594Z,6.93
2018-01-02T02:40:06.775Z,6.87
2018-01-02T02:42:35.423Z,5.40
2018-01-02T02:45:07.683Z,8.07
2018-01-02T02:47:37.068Z,7.00
2018-01-02T02:50:07.020Z,7.80
2018-01-02T02:52:35.382Z,8.33
2018-01-02T02:55:06.967Z,5.63
2018-01-02T02:57:35.635Z,6.30
2018-01-02T03:00:07.567Z,6.47
2018-01-02T03:02:36.133Z,7.90
2018-01-02T03:05:08.097Z,8.00
2018-01-02T03:07:37.143Z,6.87
2018-01-02T03:10:06.458Z,5.40
2018-01-02T03:12:34.874Z,6.87
2018-01-02T03:15:07.885Z,9.53
2018-01-02T03:17:36.188Z,8.07
2018-01-02T03:20:07.722Z,9.30
2018-01-02T03:22:36.032Z,9.90
2018-01-02T03:25:06.283Z,8.37
2018-01-02T03:27:35.456Z,8.73
2018-01-02T03:30:07.533Z,5.93
2018-01-02T03:32:35.851Z,7.77
2018-01-02T03:35:08.654Z,6.53
2018-01-02T03:37:37.037Z,7.40
2018-01-02T03:40:07.027Z,7.17
2018-01-02T03:42:35.324Z,5.50
2018-01-02T03:45:07.494Z,6.50
2018-01-02T03:47:35.781Z,8.60
2018-01-02T03:50:07.916Z,7.83
2018-01-02T03:52:36.814Z,5.73
2018-01-02T03:55:08.555Z,8.83
2018-01-02T03:57:37.771Z,8.00
2018-01-02T04:00:06.728Z,8.10
2018-01-02T04:02:35.305Z,6.93
2018-01-02T04:05:07.339Z,9.60
2018-01-02T04:07:36.135Z,8.17
2018-01-02T04:10:08.258Z,7.20
2018-01-02T04:12:36.572Z,7.30
2018-01-02T04:15:06.513Z,9.27
2018-01-02T04:17:35.303Z,9.03
2018-01-02T04:20:07.095Z,8.13
2018-01-02T04:22:35.663Z,4.67
2018-01-02T04:25:07.653Z,9.70
2018-01-02T04:27:35.907Z,5.37
2018-01-02T04:30:08.496Z,5.33
2018-01-02T04:32:36.770Z,6.20
2018-01-02T04:35:08.930Z,5.73
2018-01-02T04:37:37.253Z,4.20
2018-01-02T04:40:07.506Z,3.73
2018-01-02T04:42:35.778Z,5.20
2018-01-02T04:45:08.228Z,4.00
2018-01-02T04:47:37.068Z,4.10
2018-01-02T04:50:06.648Z,5.63
2018-01-02T04:52:35.826Z,3.43
2018-01-02T04:55:07.561Z,4.07
2018-01-02T04:57:35.852Z,3.17
2018-01-02T05:00:07.621Z,3.77
2018-01-02T05:02:35.904Z,4.10
2018-01-02T05:05:07.983Z,4.07
2018-01-02T05:07:36.262Z,4.00
2018-01-02T05:10:08.273Z,2.27
2018-01-02T05:12:36.559Z,4.10
2018-01-02T05:15:07.975Z,5.50
2018-01-02T05:17:36.264Z,3.73
2018-01-02T05:20:08.209Z,3.60
2018-01-02T05:22:36.498Z,4.30
2018-01-02T05:25:06.466Z,3.33
2018-01-02T05:27:34.759Z,4.97
2018-01-02T05:30:10.028Z,5.63
2018-01-02T05:32:38.312Z,2.63
2018-01-02T05:35:06.584Z,3.03
2018-01-02T05:37:35.750Z,5.53
2018-01-02T05:40:06.396Z,5.73
2018-01-02T05:42:34.688Z,3.40
2018-01-02T05:45:06.792Z,4.87
2018-01-02T05:47:35.072Z,6.23
2018-01-02T05:50:09.614Z,6.20
2018-01-02T05:52:38.130Z,4.50
2018-01-02T05:55:07.447Z,7.47
2018-01-02T05:57:35.742Z,7.17
2018-01-02T06:00:07.508Z,4.10
2018-01-02T06:02:35.804Z,5.57
2018-01-02T06:05:07.116Z,7.33
2018-01-02T06:07:35.415Z,6.60
2018-01-02T06:10:06.708Z,9.03
2018-01-02T06:12:35.428Z,6.57
2018-01-02T06:15:06.720Z,5.73
2018-01-02T06:17:35.223Z,7.93
2018-01-02T06:20:07.324Z,6.53
2018-01-02T06:22:35.627Z,8.13
2018-01-02T06:25:06.756Z,8.27
2018-01-02T06:27:35.016Z,7.40
2018-01-02T06:30:06.332Z,5.50
2018-01-02T06:32:34.818Z,7.00
2018-01-02T06:35:06.378Z,8.13
2018-01-02T06:37:34.701Z,6.30
2018-01-02T06:40:09.704Z,7.03
2018-01-02T06:42:37.974Z,6.93
2018-01-02T06:45:07.148Z,9.43
2018-01-02T06:47:35.559Z,6.17
2018-01-02T06:50:06.536Z,7.70
2018-01-02T06:52:34.786Z,8.47
2018-01-02T06:55:05.644Z,10.93
2018-01-02T06:57:33.920Z,7.30
2018-01-02T07:00:05.592Z,6.87
2018-01-02T07:02:33.856Z,10.30
2018-01-02T07:05:05.752Z,9.73
2018-01-02T07:07:34.010Z,8.90
2018-01-02T07:10:05.540Z,6.53
2018-01-02T07:12:33.830Z,6.83
2018-01-02T07:15:05.440Z,6.93
2018-01-02T07:17:33.722Z,6.73
2018-01-02T07:20:06.608Z,5.57
2018-01-02T07:22:35.126Z,5.37
2018-01-02T07:25:07.320Z,6.50
2018-01-02T07:27:35.592Z,4.43
2018-01-02T07:30:05.604Z,8.20
2018-01-02T07:32:33.876Z,8.47
2018-01-02T07:35:07.239Z,9.27
2018-01-02T07:37:35.520Z,5.30
2018-01-02T07:40:05.700Z,6.60
2018-01-02T07:42:33.968Z,6.60
2018-01-02T07:45:05.605Z,7.40
2018-01-02T07:47:33.880Z,6.57
2018-01-02T07:50:06.653Z,7.93
2018-01-02T07:52:34.929Z,10.27
2018-01-02T07:55:06.460Z,7.50
2018-01-02T07:57:34.732Z,9.37
2018-01-02T08:00:06.136Z,6.33
2018-01-02T08:02:34.584Z,10.03
2018-01-02T08:05:06.897Z,10.10
2018-01-02T08:07:35.144Z,11.90
2018-01-02T08:10:06.761Z,7.83
2018-01-02T08:12:35.085Z,9.33
2018-01-02T08:15:06.427Z,11.37
2018-01-02T08:17:34.889Z,8.97
2018-01-02T08:20:07.021Z,31.27
2018-01-02T08:22:35.298Z,13.07
2018-01-02T08:25:05.610Z,12.57
2018-01-02T08:27:34.373Z,9.60
2018-01-02T08:30:06.476Z,6.50
2018-01-02T08:32:34.753Z,8.93
2018-01-02T08:35:06.908Z,6.87
2018-01-02T08:37:35.677Z,9.10
2018-01-02T08:40:05.580Z,5.20
2018-01-02T08:42:34.353Z,7.60
2018-01-02T08:45:05.772Z,6.50
2018-01-02T08:47:34.046Z,6.73
2018-01-02T08:50:09.036Z,7.73
2018-01-02T08:52:37.331Z,7.63
2018-01-02T08:55:05.642Z,7.10
2018-01-02T08:57:34.049Z,5.93
2018-01-02T09:00:05.447Z,7.80
2018-01-02T09:02:33.735Z,6.23
2018-01-02T09:05:05.197Z,8.87
2018-01-02T09:07:33.776Z,6.40
2018-01-02T09:10:06.069Z,6.17
2018-01-02T09:12:39.973Z,9.37
2018-01-02T09:15:08.263Z,6.57
2018-01-02T09:17:37.015Z,6.20
2018-01-02T09:20:06.432Z,8.97
2018-01-02T09:22:35.187Z,8.37
2018-01-02T09:25:07.132Z,11.63
2018-01-02T09:27:35.457Z,5.90
2018-01-02T09:30:06.968Z,10.60
2018-01-02T09:32:35.254Z,6.77
2018-01-02T09:35:05.617Z,9.40
2018-01-02T09:37:33.876Z,6.30
2018-01-02T09:40:05.339Z,9.30
2018-01-02T09:42:33.617Z,7.10
2018-01-02T09:45:08.563Z,9.63
2018-01-02T09:47:37.105Z,6.90
2018-01-02T09:50:06.339Z,7.60
2018-01-02T09:52:34.624Z,7.37
2018-01-02T09:55:05.781Z,6.47
2018-01-02T09:57:34.064Z,8.53
2018-01-02T10:00:05.656Z,6.57
2018-01-02T10:02:33.980Z,8.03
2018-01-02T10:05:09.568Z,6.40
2018-01-02T10:07:37.884Z,13.27
2018-01-02T10:10:06.165Z,10.63
2018-01-02T10:12:34.849Z,5.87
2018-01-02T10:15:05.853Z,10.10
2018-01-02T10:17:34.167Z,10.60
2018-01-02T10:20:08.418Z,8.57
2018-01-02T10:22:36.734Z,9.93
2018-01-02T10:25:06.624Z,6.43
2018-01-02T10:27:35.064Z,6.53
2018-01-02T10:30:06.387Z,7.23
2018-01-02T10:32:34.691Z,12.63
2018-01-02T10:35:06.576Z,5.30
2018-01-02T10:37:38.908Z,6.23
2018-01-02T10:40:07.183Z,10.00
2018-01-02T10:42:35.473Z,7.40
2018-01-02T10:45:06.893Z,6.17
2018-01-02T10:47:35.188Z,6.73
2018-01-02T10:50:06.503Z,10.03
2018-01-02T10:52:34.768Z,5.90
2018-01-02T10:55:05.877Z,10.43
2018-01-02T10:57:34.770Z,5.53
2018-01-02T11:00:06.856Z,5.30
2018-01-02T11:02:35.087Z,9.60
2018-01-02T11:05:07.213Z,6.87
2018-01-02T11:07:35.512Z,6.20
2018-01-02T11:10:06.716Z,9.67
2018-01-02T11:12:40.508Z,5.80
2018-01-02T11:15:08.810Z,5.13
2018-01-02T11:17:37.109Z,6.07
2018-01-02T11:20:06.123Z,8.47
2018-01-02T11:22:34.899Z,12.97
2018-01-02T11:25:05.801Z,7.20
2018-01-02T11:27:34.099Z,13.77
2018-01-02T11:30:09.299Z,9.40
2018-01-02T11:32:37.593Z,9.57
2018-01-02T11:35:05.994Z,9.90
2018-01-02T11:37:34.286Z,8.47
2018-01-02T11:40:05.983Z,13.20
2018-01-02T11:42:34.765Z,7.03
2018-01-02T11:45:06.259Z,9.50
2018-01-02T11:47:34.741Z,7.27
2018-01-02T11:50:06.434Z,7.93
2018-01-02T11:52:34.728Z,6.93
2018-01-02T11:55:06.623Z,5.60
2018-01-02T11:57:34.920Z,5.40
2018-01-02T12:00:05.986Z,5.33
2018-01-02T12:02:34.284Z,5.77
2018-01-02T12:05:05.719Z,4.27
2018-01-02T12:07:34.543Z,4.10
2018-01-02T12:10:05.845Z,4.60
2018-01-02T12:12:34.120Z,7.17
2018-01-02T12:15:05.616Z,7.03
2018-01-02T12:17:33.891Z,3.27
2018-01-02T12:20:05.224Z,8.30
2018-01-02T12:22:33.600Z,3.70
2018-01-02T12:25:08.300Z,5.77
2018-01-02T12:27:36.696Z,5.57
2018-01-02T12:30:06.200Z,4.00
2018-01-02T12:32:34.479Z,6.43
2018-01-02T12:35:06.000Z,6.40
2018-01-02T12:37:34.360Z,4.33
2018-01-02T12:40:09.396Z,5.90
2018-01-02T12:42:37.664Z,7.67
2018-01-02T12:45:06.354Z,5.67
2018-01-02T12:47:34.660Z,5.00
2018-01-02T12:50:05.865Z,5.30
2018-01-02T12:52:34.167Z,4.80
2018-01-02T12:55:09.446Z,5.07
2018-01-02T12:57:37.720Z,5.73
2018-01-02T13:00:05.992Z,5.07
2018-01-02T13:02:34.584Z,4.47
2018-01-02T13:05:05.822Z,4.73
2018-01-02T13:07:34.203Z,6.67
2018-01-02T13:10:06.001Z,7.07
2018-01-02T13:12:34.304Z,4.03
2018-01-02T13:15:09.572Z,5.57
2018-01-02T13:17:37.902Z,6.00
2018-01-02T13:20:06.342Z,8.40
2018-01-02T13:22:34.885Z,4.53
2018-01-02T13:25:06.624Z,7.17
2018-01-02T13:27:34.932Z,5.77
2018-01-02T13:30:06.960Z,5.63
2018-01-02T13:32:35.334Z,7.20
2018-01-02T13:35:07.467Z,7.40
2018-01-02T13:37:35.725Z,5.50
2018-01-02T13:40:07.257Z,3.87
2018-01-02T13:42:35.632Z,4.80
2018-01-02T13:45:07.660Z,6.03
2018-01-02T13:47:35.945Z,4.33
2018-01-02T13:50:05.900Z,5.53
2018-01-02T13:52:34.168Z,5.73
2018-01-02T13:55:05.764Z,6.40
2018-01-02T13:57:34.076Z,5.77
2018-01-02T14:00:07.012Z,6.17
2018-01-02T14:02:35.280Z,10.37
2018-01-02T14:05:07.117Z,7.93
2018-01-02T14:07:35.392Z,7.73
2018-01-02T14:10:06.620Z,9.87
2018-01-02T14:12:34.936Z,8.50
2018-01-02T14:15:06.987Z,6.40
2018-01-02T14:17:35.456Z,6.80
2018-01-02T14:20:07.142Z,4.80
2018-01-02T14:22:35.440Z,4.83
2018-01-02T14:25:06.740Z,5.97
2018-01-02T14:27:35.024Z,6.40
2018-01-02T14:30:06.130Z,7.00
2018-01-02T14:32:34.480Z,5.67
2018-01-02T14:35:08.569Z,7.37
2018-01-02T14:37:37.075Z,5.30
2018-01-02T14:40:06.554Z,5.93
2018-01-02T14:42:34.854Z,4.63
2018-01-02T14:45:06.091Z,4.80
2018-01-02T14:47:34.383Z,6.97
2018-01-02T14:50:09.623Z,3.37
2018-01-02T14:52:38.108Z,5.67
2018-01-02T14:55:06.639Z,5.43
2018-01-02T14:57:34.957Z,8.20
2018-01-02T15:00:07.581Z,10.43
2018-01-02T15:02:35.859Z,5.27
2018-01-02T15:05:07.832Z,7.10
2018-01-02T15:07:36.138Z,6.07
2018-01-02T15:10:07.889Z,5.30
2018-01-02T15:12:36.493Z,6.67
2018-01-02T15:15:07.767Z,6.10
2018-01-02T15:17:36.066Z,12.83
2018-01-02T15:20:07.360Z,4.97
2018-01-02T15:22:35.648Z,5.60
2018-01-02T15:25:07.160Z,6.87
2018-01-02T15:27:35.794Z,5.13
2018-01-02T15:30:08.403Z,6.17
2018-01-02T15:32:36.792Z,4.80
2018-01-02T15:35:06.689Z,6.77
2018-01-02T15:37:35.024Z,6.37
2018-01-02T15:40:07.032Z,7.93
2018-01-02T15:42:35.380Z,8.03
2018-01-02T15:45:07.547Z,9.10
2018-01-02T15:47:36.279Z,7.83
2018-01-02T15:50:07.889Z,7.37
2018-01-02T15:52:36.342Z,10.60
2018-01-02T15:55:06.741Z,6.27
2018-01-02T15:57:35.665Z,8.23
2018-01-02T16:00:07.631Z,9.80
2018-01-02T16:02:36.173Z,9.17
2018-01-02T16:05:07.648Z,12.03
2018-01-02T16:07:35.959Z,10.67
2018-01-02T16:10:07.924Z,9.60
2018-01-02T16:12:39.061Z,10.20
2018-01-02T16:15:08.862Z,8.07
2018-01-02T16:17:37.190Z,10.60
2018-01-02T16:20:06.600Z,9.47
2018-01-02T16:22:35.335Z,11.57
2018-01-02T16:25:07.956Z,8.53
2018-01-02T16:27:36.870Z,8.57
2018-01-02T16:30:07.627Z,9.97
2018-01-02T16:32:36.356Z,12.10
2018-01-02T16:35:09.024Z,13.57
2018-01-02T16:37:37.409Z,10.77
2018-01-02T16:40:06.469Z,11.43
2018-01-02T16:42:34.783Z,12.27
2018-01-02T16:45:06.897Z,10.73
2018-01-02T16:47:35.615Z,11.27
2018-01-02T16:50:08.201Z,11.57
2018-01-02T16:52:37.371Z,12.57
2018-01-02T16:55:06.942Z,12.13
2018-01-02T16:57:35.308Z,10.67
2018-01-02T17:00:07.479Z,12.43
2018-01-02T17:02:35.966Z,9.53
2018-01-02T17:05:06.045Z,10.33
2018-01-02T17:07:34.371Z,10.03
2018-01-02T17:10:06.208Z,12.03
2018-01-02T17:12:34.521Z,10.43
2018-01-02T17:15:05.776Z,10.90
2018-01-02T17:17:34.116Z,11.00
2018-01-02T17:20:05.500Z,12.73
2018-01-02T17:22:33.784Z,9.27
2018-01-02T17:25:09.005Z,13.23
2018-01-02T17:27:37.334Z,13.40
2018-01-02T17:30:05.813Z,14.83
2018-01-02T17:32:34.779Z,14.80
2018-01-02T17:35:06.626Z,13.63
2018-01-02T17:37:35.276Z,15.20
2018-01-02T17:40:06.882Z,14.57
2018-01-02T17:42:35.222Z,13.03
2018-01-02T17:45:07.371Z,12.27
2018-01-02T17:47:35.680Z,11.23
2018-01-02T17:50:07.209Z,15.03
2018-01-02T17:52:35.538Z,16.80
2018-01-02T17:55:07.286Z,16.93
2018-01-02T17:57:35.608Z,14.53
2018-01-02T18:00:07.061Z,22.40
2018-01-02T18:02:35.362Z,10.97
2018-01-02T18:05:07.105Z,12.23
2018-01-02T18:07:35.491Z,12.53
2018-01-02T18:10:06.962Z,17.73
2018-01-02T18:12:35.353Z,14.60
2018-01-02T18:15:06.620Z,15.27
2018-01-02T18:17:35.073Z,15.33
2018-01-02T18:20:06.517Z,16.03
2018-01-02T18:22:35.692Z,13.37
2018-01-02T18:25:07.151Z,14.30
2018-01-02T18:27:35.870Z,15.47
2018-01-02T18:30:07.731Z,12.03
2018-01-02T18:32:36.065Z,15.70
2018-01-02T18:35:06.328Z,14.43
2018-01-02T18:37:34.618Z,19.33
2018-01-02T18:40:06.753Z,14.60
2018-01-02T18:42:35.742Z,14.10
2018-01-02T18:45:07.292Z,16.87
2018-01-02T18:47:35.582Z,16.70
2018-01-02T18:50:07.529Z,20.57
2018-01-02T18:52:36.020Z,11.93
2018-01-02T18:55:06.132Z,16.00
2018-01-02T18:57:34.511Z,16.87
2018-01-02T19:00:06.044Z,13.00
2018-01-02T19:02:35.316Z,22.50
2018-01-02T19:05:07.302Z,17.97
2018-01-02T19:07:35.605Z,13.17
2018-01-02T19:10:07.062Z,14.27
2018-01-02T19:12:35.668Z,13.27
2018-01-02T19:15:07.418Z,12.50
2018-01-02T19:17:35.737Z,11.80
2018-01-02T19:20:07.894Z,15.20
2018-01-02T19:22:36.383Z,9.90
2018-01-02T19:25:08.183Z,11.33
2018-01-02T19:27:36.465Z,13.80
2018-01-02T19:30:06.515Z,14.63
2018-01-02T19:32:34.836Z,12.00
2018-01-02T19:35:06.911Z,11.67
2018-01-02T19:37:35.246Z,7.90
2018-01-02T19:40:07.224Z,10.00
2018-01-02T19:42:35.518Z,9.07
2018-01-02T19:45:07.690Z,11.00
2018-01-02T19:47:35.996Z,10.70
2018-01-02T19:50:09.140Z,10.03
2018-01-02T19:52:37.466Z,6.97
2018-01-02T19:55:06.473Z,7.10
2018-01-02T19:57:34.799Z,6.90
2018-01-02T20:00:06.257Z,7.10
2018-01-02T20:02:34.949Z,8.57
2018-01-02T20:05:08.258Z,8.27
2018-01-02T20:07:36.556Z,6.63
2018-01-02T20:10:07.529Z,7.13
2018-01-02T20:12:35.874Z,7.77
2018-01-02T20:15:05.994Z,7.00
2018-01-02T20:17:34.758Z,5.40
2018-01-02T20:20:05.938Z,4.67
2018-01-02T20:22:34.256Z,4.47
2018-01-02T20:25:06.214Z,6.10
2018-01-02T20:27:34.516Z,5.13
2018-01-02T20:30:06.735Z,6.07
2018-01-02T20:32:35.071Z,7.37
2018-01-02T20:35:07.241Z,5.73
2018-01-02T20:37:35.555Z,6.50
2018-01-02T20:40:08.410Z,7.77
2018-01-02T20:42:36.755Z,6.53
2018-01-02T20:45:06.287Z,6.53
2018-01-02T20:47:34.597Z,6.87
2018-01-02T20:50:07.196Z,4.60
2018-01-02T20:52:35.951Z,6.47
2018-01-02T20:55:07.426Z,3.47
2018-01-02T20:57:35.708Z,5.50
2018-01-02T21:00:07.789Z,3.53
2018-01-02T21:02:36.064Z,4.13
2018-01-02T21:05:06.308Z,2.20
2018-01-02T21:07:34.619Z,4.10
2018-01-02T21:10:06.754Z,3.93
2018-01-02T21:12:35.038Z,6.33
2018-01-02T21:15:07.362Z,2.87
2018-01-02T21:17:36.435Z,3.57
2018-01-02T21:20:06.595Z,4.03
2018-01-02T21:22:34.837Z,3.50
2018-01-02T21:25:06.043Z,2.97
2018-01-02T21:27:34.398Z,4.23
2018-01-02T21:30:09.390Z,5.30
2018-01-02T21:32:37.676Z,4.23
2018-01-02T21:35:05.992Z,3.63
2018-01-02T21:37:34.305Z,2.87
2018-01-02T21:40:10.258Z,3.40
2018-01-02T21:42:38.530Z,2.00
2018-01-02T21:45:07.425Z,2.13
2018-01-02T21:47:35.698Z,2.77
2018-01-02T21:50:07.193Z,2.47
2018-01-02T21:52:36.114Z,3.40
2018-01-02T21:55:06.193Z,3.93
2018-01-02T21:57:34.443Z,1.43
2018-01-02T22:00:09.482Z,2.63
2018-01-02T22:02:38.284Z,3.23
2018-01-02T22:05:06.550Z,3.33
2018-01-02T22:07:34.835Z,1.40
2018-01-02T22:10:07.024Z,2.37
2018-01-02T22:12:35.286Z,2.73
2018-01-02T22:15:06.112Z,1.73
2018-01-02T22:17:34.346Z,3.47
2018-01-02T22:20:09.800Z,1.60
2018-01-02T22:22:38.077Z,2.63
2018-01-02T22:25:06.358Z,1.40
2018-01-02T22:27:34.661Z,2.37
2018-01-02T22:30:06.230Z,1.50
2018-01-02T22:32:34.482Z,1.93
2018-01-02T22:35:06.572Z,3.00
2018-01-02T22:37:34.798Z,3.53
2018-01-02T22:40:07.164Z,2.33
2018-01-02T22:42:35.444Z,1.87
2018-01-02T22:45:06.058Z,1.30
2018-01-02T22:47:34.416Z,1.37
2018-01-02T22:50:09.566Z,1.13
2018-01-02T22:52:37.855Z,1.43
2018-01-02T22:55:07.012Z,1.37
2018-01-02T22:57:35.253Z,2.63
2018-01-02T23:00:06.081Z,1.27
2018-01-02T23:02:34.365Z,1.27
2018-01-02T23:05:05.882Z,1.20
2018-01-02T23:07:34.362Z,1.50
2018-01-02T23:10:05.892Z,2.03
2018-01-02T23:12:34.329Z,1.33
2018-01-02T23:15:08.230Z,0.90
2018-01-02T23:17:36.546Z,1.77
2018-01-02T23:20:06.522Z,1.87
2018-01-02T23:22:34.780Z,2.00
2018-01-02T23:25:08.716Z,1.33
2018-01-02T23:27:36.972Z,1.50
2018-01-02T23:30:06.980Z,0.87
2018-01-02T23:32:35.272Z,0.70
2018-01-02T23:35:07.308Z,1.00
2018-01-02T23:37:35.847Z,1.50
2018-01-02T23:40:07.608Z,0.73
2018-01-02T23:42:35.901Z,0.70
2018-01-02T23:45:07.128Z,1.00
2018-01-02T23:47:35.518Z,0.53
2018-01-02T23:50:06.924Z,0.93
2018-01-02T23:52:35.223Z,0.90
2018-01-02T23:55:06.128Z,0.77
2018-01-02T23:57:34.425Z,0.80
